sensor_id;sensor_type;location;lat;lon;timestamp;temperature;humidity
10046;DHT22;5063;50.878;4.742;2023-03-14T00:01:48;12.10;99.90
10046;DHT22;5063;50.878;4.742;2023-03-14T00:04:14;12.20;99.90
10046;DHT22;5063;50.878;4.742;2023-03-14T00:06:40;12.20;99.90
10046;DHT22;5063;50.878;4.742;2023-03-14T00:09:06;12.20;99.90
10046;DHT22;5063;50.878;4.742;2023-03-14T00:11:32;12.20;99.90
10046;DHT22;5063;50.878;4.742;2023-03-14T00:13:58;12.20;99.90
10046;DHT22;5063;50.878;4.742;2023-03-14T00:16:25;12.10;99.90
10046;DHT22;5063;50.878;4.742;2023-03-14T00:18:51;12.10;99.90
10046;DHT22;5063;50.878;4.742;2023-03-14T00:21:17;12.10;99.90
10046;DHT22;5063;50.878;4.742;2023-03-14T00:23:43;12.10;99.90
10046;DHT22;5063;50.878;4.742;2023-03-14T00:26:12;12.00;99.90
10046;DHT22;5063;50.878;4.742;2023-03-14T00:28:38;12.00;99.90
10046;DHT22;5063;50.878;4.742;2023-03-14T00:31:06;12.00;99.90
10046;DHT22;5063;50.878;4.742;2023-03-14T00:33:32;11.90;99.90
10046;DHT22;5063;50.878;4.742;2023-03-14T00:36:04;11.90;99.90
10046;DHT22;5063;50.878;4.742;2023-03-14T00:38:31;11.90;99.90
10046;DHT22;5063;50.878;4.742;2023-03-14T00:40:57;12.00;99.90
10046;DHT22;5063;50.878;4.742;2023-03-14T00:43:23;12.00;99.90
10046;DHT22;5063;50.878;4.742;2023-03-14T00:45:50;12.00;99.90
10046;DHT22;5063;50.878;4.742;2023-03-14T00:48:18;11.90;99.90
10046;DHT22;5063;50.878;4.742;2023-03-14T00:50:44;11.80;99.90
10046;DHT22;5063;50.878;4.742;2023-03-14T00:53:11;11.80;99.90
10046;DHT22;5063;50.878;4.742;2023-03-14T00:55:38;11.80;99.90
10046;DHT22;5063;50.878;4.742;2023-03-14T00:58:04;11.70;99.90
10046;DHT22;5063;50.878;4.742;2023-03-14T01:00:30;11.70;99.90
10046;DHT22;5063;50.878;4.742;2023-03-14T01:02:56;11.70;99.90
10046;DHT22;5063;50.878;4.742;2023-03-14T01:05:22;11.70;99.90
10046;DHT22;5063;50.878;4.742;2023-03-14T01:07:48;11.80;99.90
10046;DHT22;5063;50.878;4.742;2023-03-14T01:10:14;11.90;99.90
10046;DHT22;5063;50.878;4.742;2023-03-14T01:12:40;11.80;99.90
10046;DHT22;5063;50.878;4.742;2023-03-14T01:15:06;11.80;99.90
10046;DHT22;5063;50.878;4.742;2023-03-14T01:17:32;11.80;99.90
10046;DHT22;5063;50.878;4.742;2023-03-14T01:19:59;11.70;99.90
10046;DHT22;5063;50.878;4.742;2023-03-14T01:22:25;11.70;99.90
10046;DHT22;5063;50.878;4.742;2023-03-14T01:24:50;11.70;99.90
10046;DHT22;5063;50.878;4.742;2023-03-14T01:27:16;11.70;99.90
10046;DHT22;5063;50.878;4.742;2023-03-14T01:29:42;11.70;99.90
10046;DHT22;5063;50.878;4.742;2023-03-14T01:32:08;11.70;99.90
10046;DHT22;5063;50.878;4.742;2023-03-14T01:34:33;11.70;99.90
10046;DHT22;5063;50.878;4.742;2023-03-14T01:36:59;11.70;99.90
10046;DHT22;5063;50.878;4.742;2023-03-14T01:39:25;11.70;99.90
10046;DHT22;5063;50.878;4.742;2023-03-14T01:41:50;11.70;99.90
10046;DHT22;5063;50.878;4.742;2023-03-14T01:44:16;11.60;99.90
10046;DHT22;5063;50.878;4.742;2023-03-14T01:46:43;11.50;99.90
10046;DHT22;5063;50.878;4.742;2023-03-14T01:49:31;11.40;99.90
10046;DHT22;5063;50.878;4.742;2023-03-14T01:52:05;11.30;99.90
10046;DHT22;5063;50.878;4.742;2023-03-14T01:54:38;11.10;99.90
10046;DHT22;5063;50.878;4.742;2023-03-14T01:57:14;11.10;99.90
10046;DHT22;5063;50.878;4.742;2023-03-14T01:59:45;11.00;99.90
10046;DHT22;5063;50.878;4.742;2023-03-14T02:02:12;10.90;99.90
10046;DHT22;5063;50.878;4.742;2023-03-14T02:04:38;10.90;99.90
10046;DHT22;5063;50.878;4.742;2023-03-14T02:10:07;11.00;99.90
10046;DHT22;5063;50.878;4.742;2023-03-14T02:12:34;11.10;99.90
10046;DHT22;5063;50.878;4.742;2023-03-14T02:15:00;11.20;99.90
10046;DHT22;5063;50.878;4.742;2023-03-14T02:17:26;11.10;99.90
10046;DHT22;5063;50.878;4.742;2023-03-14T02:22:41;10.90;99.90
10046;DHT22;5063;50.878;4.742;2023-03-14T02:25:16;10.80;99.90
10046;DHT22;5063;50.878;4.742;2023-03-14T02:27:43;10.70;99.90
10046;DHT22;5063;50.878;4.742;2023-03-14T02:30:13;10.60;99.90
10046;DHT22;5063;50.878;4.742;2023-03-14T02:32:42;10.60;99.90
10046;DHT22;5063;50.878;4.742;2023-03-14T02:35:12;10.40;99.90
10046;DHT22;5063;50.878;4.742;2023-03-14T02:37:49;10.40;99.90
10046;DHT22;5063;50.878;4.742;2023-03-14T02:40:16;10.40;99.90
10046;DHT22;5063;50.878;4.742;2023-03-14T02:42:42;10.40;99.90
10046;DHT22;5063;50.878;4.742;2023-03-14T02:47:34;10.30;99.90
10046;DHT22;5063;50.878;4.742;2023-03-14T02:50:09;10.30;99.90
10046;DHT22;5063;50.878;4.742;2023-03-14T02:52:35;10.20;99.90
10046;DHT22;5063;50.878;4.742;2023-03-14T02:55:01;10.30;99.90
10046;DHT22;5063;50.878;4.742;2023-03-14T02:57:27;10.30;99.90
10046;DHT22;5063;50.878;4.742;2023-03-14T02:59:52;10.30;99.90
10046;DHT22;5063;50.878;4.742;2023-03-14T03:02:18;10.30;99.90
10046;DHT22;5063;50.878;4.742;2023-03-14T03:04:44;10.40;99.90
10046;DHT22;5063;50.878;4.742;2023-03-14T03:07:09;10.40;99.90
10046;DHT22;5063;50.878;4.742;2023-03-14T03:09:35;10.50;99.90
10046;DHT22;5063;50.878;4.742;2023-03-14T03:12:01;10.50;99.90
10046;DHT22;5063;50.878;4.742;2023-03-14T03:14:27;10.60;99.90
10046;DHT22;5063;50.878;4.742;2023-03-14T03:16:52;10.60;99.90
10046;DHT22;5063;50.878;4.742;2023-03-14T03:19:18;10.60;99.90
10046;DHT22;5063;50.878;4.742;2023-03-14T03:21:44;10.70;99.90
10046;DHT22;5063;50.878;4.742;2023-03-14T03:24:10;10.60;99.90
10046;DHT22;5063;50.878;4.742;2023-03-14T03:26:36;10.50;99.90
10046;DHT22;5063;50.878;4.742;2023-03-14T03:29:02;10.50;99.90
10046;DHT22;5063;50.878;4.742;2023-03-14T03:31:28;10.50;99.90
10046;DHT22;5063;50.878;4.742;2023-03-14T03:33:54;10.50;99.90
10046;DHT22;5063;50.878;4.742;2023-03-14T03:36:25;10.50;99.90
10046;DHT22;5063;50.878;4.742;2023-03-14T03:38:51;10.60;99.90
10046;DHT22;5063;50.878;4.742;2023-03-14T03:41:17;10.60;99.90
10046;DHT22;5063;50.878;4.742;2023-03-14T03:43:42;10.50;99.90
10046;DHT22;5063;50.878;4.742;2023-03-14T03:46:08;10.50;99.90
10046;DHT22;5063;50.878;4.742;2023-03-14T03:48:35;10.50;99.90
10046;DHT22;5063;50.878;4.742;2023-03-14T03:51:01;10.50;99.90
10046;DHT22;5063;50.878;4.742;2023-03-14T03:53:27;10.50;99.90
10046;DHT22;5063;50.878;4.742;2023-03-14T03:55:53;10.50;99.90
10046;DHT22;5063;50.878;4.742;2023-03-14T03:58:19;10.50;99.90
10046;DHT22;5063;50.878;4.742;2023-03-14T04:00:45;10.50;99.90
10046;DHT22;5063;50.878;4.742;2023-03-14T04:03:11;10.50;99.90
10046;DHT22;5063;50.878;4.742;2023-03-14T04:05:37;10.50;99.90
10046;DHT22;5063;50.878;4.742;2023-03-14T04:08:04;10.60;99.90
10046;DHT22;5063;50.878;4.742;2023-03-14T04:10:30;10.70;99.90
10046;DHT22;5063;50.878;4.742;2023-03-14T04:12:55;10.70;99.90
10046;DHT22;5063;50.878;4.742;2023-03-14T04:15:21;10.60;99.90
10046;DHT22;5063;50.878;4.742;2023-03-14T04:17:47;10.60;99.90
10046;DHT22;5063;50.878;4.742;2023-03-14T04:20:12;10.50;99.90
10046;DHT22;5063;50.878;4.742;2023-03-14T04:22:39;10.50;99.90
10046;DHT22;5063;50.878;4.742;2023-03-14T04:25:05;10.50;99.90
10046;DHT22;5063;50.878;4.742;2023-03-14T04:27:31;10.50;99.90
10046;DHT22;5063;50.878;4.742;2023-03-14T04:29:57;10.50;99.90
10046;DHT22;5063;50.878;4.742;2023-03-14T04:32:23;10.50;99.90
10046;DHT22;5063;50.878;4.742;2023-03-14T04:34:49;10.50;99.90
10046;DHT22;5063;50.878;4.742;2023-03-14T04:37:14;10.50;99.90
10046;DHT22;5063;50.878;4.742;2023-03-14T04:39:40;10.60;99.90
10046;DHT22;5063;50.878;4.742;2023-03-14T04:42:06;10.60;99.90
10046;DHT22;5063;50.878;4.742;2023-03-14T04:44:32;10.60;99.90
10046;DHT22;5063;50.878;4.742;2023-03-14T04:46:57;10.50;99.90
10046;DHT22;5063;50.878;4.742;2023-03-14T04:49:23;10.50;99.90
10046;DHT22;5063;50.878;4.742;2023-03-14T04:51:49;10.40;99.90
10046;DHT22;5063;50.878;4.742;2023-03-14T04:54:18;10.40;99.90
10046;DHT22;5063;50.878;4.742;2023-03-14T04:56:43;10.50;99.90
10046;DHT22;5063;50.878;4.742;2023-03-14T04:59:09;10.50;99.90
10046;DHT22;5063;50.878;4.742;2023-03-14T05:01:35;10.60;99.90
10046;DHT22;5063;50.878;4.742;2023-03-14T05:04:01;10.50;99.90
10046;DHT22;5063;50.878;4.742;2023-03-14T05:06:27;10.60;99.90
10046;DHT22;5063;50.878;4.742;2023-03-14T05:08:52;10.60;99.90
10046;DHT22;5063;50.878;4.742;2023-03-14T05:11:18;10.60;99.90
10046;DHT22;5063;50.878;4.742;2023-03-14T05:13:44;10.60;99.90
10046;DHT22;5063;50.878;4.742;2023-03-14T05:16:11;10.50;99.90
10046;DHT22;5063;50.878;4.742;2023-03-14T05:18:37;10.50;99.90
10046;DHT22;5063;50.878;4.742;2023-03-14T05:21:03;10.60;99.90
10046;DHT22;5063;50.878;4.742;2023-03-14T05:23:30;10.60;99.90
10046;DHT22;5063;50.878;4.742;2023-03-14T05:25:55;10.60;99.90
10046;DHT22;5063;50.878;4.742;2023-03-14T05:28:21;10.70;99.90
10046;DHT22;5063;50.878;4.742;2023-03-14T05:30:47;10.80;99.90
10046;DHT22;5063;50.878;4.742;2023-03-14T05:33:13;10.80;99.90
10046;DHT22;5063;50.878;4.742;2023-03-14T05:35:40;10.80;99.90
10046;DHT22;5063;50.878;4.742;2023-03-14T05:38:05;10.80;99.90
10046;DHT22;5063;50.878;4.742;2023-03-14T05:40:31;10.80;99.90
10046;DHT22;5063;50.878;4.742;2023-03-14T05:42:57;10.80;99.90
10046;DHT22;5063;50.878;4.742;2023-03-14T05:45:22;10.70;99.90
10046;DHT22;5063;50.878;4.742;2023-03-14T05:47:48;10.80;99.90
10046;DHT22;5063;50.878;4.742;2023-03-14T05:50:14;10.80;99.90
10046;DHT22;5063;50.878;4.742;2023-03-14T05:52:40;10.90;99.90
10046;DHT22;5063;50.878;4.742;2023-03-14T05:55:06;10.90;99.90
10046;DHT22;5063;50.878;4.742;2023-03-14T05:57:31;10.80;99.90
10046;DHT22;5063;50.878;4.742;2023-03-14T05:59:57;10.80;99.90
10046;DHT22;5063;50.878;4.742;2023-03-14T06:02:23;10.80;99.90
10046;DHT22;5063;50.878;4.742;2023-03-14T06:04:48;10.80;99.90
10046;DHT22;5063;50.878;4.742;2023-03-14T06:07:14;10.80;99.90
10046;DHT22;5063;50.878;4.742;2023-03-14T06:09:40;10.70;99.90
10046;DHT22;5063;50.878;4.742;2023-03-14T06:12:06;10.70;99.90
10046;DHT22;5063;50.878;4.742;2023-03-14T06:14:32;10.70;99.90
10046;DHT22;5063;50.878;4.742;2023-03-14T06:16:57;10.70;99.90
10046;DHT22;5063;50.878;4.742;2023-03-14T06:19:25;10.70;99.90
10046;DHT22;5063;50.878;4.742;2023-03-14T06:21:51;10.80;99.90
10046;DHT22;5063;50.878;4.742;2023-03-14T06:24:17;10.90;99.90
10046;DHT22;5063;50.878;4.742;2023-03-14T06:26:43;10.90;99.90
10046;DHT22;5063;50.878;4.742;2023-03-14T06:29:10;11.00;99.90
10046;DHT22;5063;50.878;4.742;2023-03-14T06:31:35;11.00;99.90
10046;DHT22;5063;50.878;4.742;2023-03-14T06:34:01;11.10;99.90
10046;DHT22;5063;50.878;4.742;2023-03-14T06:36:27;11.10;99.90
10046;DHT22;5063;50.878;4.742;2023-03-14T06:38:53;11.10;99.90
10046;DHT22;5063;50.878;4.742;2023-03-14T06:41:19;11.10;99.90
10046;DHT22;5063;50.878;4.742;2023-03-14T06:43:45;11.20;99.90
10046;DHT22;5063;50.878;4.742;2023-03-14T06:46:10;11.20;99.90
10046;DHT22;5063;50.878;4.742;2023-03-14T06:48:36;11.20;99.90
10046;DHT22;5063;50.878;4.742;2023-03-14T06:51:02;11.20;99.90
10046;DHT22;5063;50.878;4.742;2023-03-14T06:53:28;11.20;99.90
10046;DHT22;5063;50.878;4.742;2023-03-14T06:55:54;11.20;99.90
10046;DHT22;5063;50.878;4.742;2023-03-14T06:58:19;11.10;99.90
10046;DHT22;5063;50.878;4.742;2023-03-14T07:00:45;11.10;99.90
10046;DHT22;5063;50.878;4.742;2023-03-14T07:03:13;11.00;99.90
10046;DHT22;5063;50.878;4.742;2023-03-14T07:05:39;11.10;99.90
10046;DHT22;5063;50.878;4.742;2023-03-14T07:08:07;11.10;99.90
10046;DHT22;5063;50.878;4.742;2023-03-14T07:10:33;11.10;99.90
10046;DHT22;5063;50.878;4.742;2023-03-14T07:12:59;11.10;99.90
10046;DHT22;5063;50.878;4.742;2023-03-14T07:15:25;11.00;99.90
10046;DHT22;5063;50.878;4.742;2023-03-14T07:17:51;10.40;99.90
10046;DHT22;5063;50.878;4.742;2023-03-14T07:20:17;9.90;99.90
10046;DHT22;5063;50.878;4.742;2023-03-14T07:22:42;9.70;99.90
10046;DHT22;5063;50.878;4.742;2023-03-14T07:25:08;9.20;99.90
10046;DHT22;5063;50.878;4.742;2023-03-14T07:27:37;8.90;99.90
10046;DHT22;5063;50.878;4.742;2023-03-14T07:30:04;8.80;99.90
10046;DHT22;5063;50.878;4.742;2023-03-14T07:32:29;8.80;99.90
10046;DHT22;5063;50.878;4.742;2023-03-14T07:34:55;8.70;99.90
10046;DHT22;5063;50.878;4.742;2023-03-14T07:37:21;8.40;99.90
10046;DHT22;5063;50.878;4.742;2023-03-14T07:39:47;8.40;99.90
10046;DHT22;5063;50.878;4.742;2023-03-14T07:42:13;8.40;99.90
10046;DHT22;5063;50.878;4.742;2023-03-14T07:44:39;8.30;99.90
10046;DHT22;5063;50.878;4.742;2023-03-14T07:47:04;8.40;99.90
10046;DHT22;5063;50.878;4.742;2023-03-14T07:49:30;8.20;99.90
10046;DHT22;5063;50.878;4.742;2023-03-14T07:51:56;8.10;99.90
10046;DHT22;5063;50.878;4.742;2023-03-14T07:54:22;8.20;99.90
10046;DHT22;5063;50.878;4.742;2023-03-14T07:56:49;8.20;99.90
10046;DHT22;5063;50.878;4.742;2023-03-14T07:59:14;8.10;99.90
10046;DHT22;5063;50.878;4.742;2023-03-14T08:01:40;8.10;99.90
10046;DHT22;5063;50.878;4.742;2023-03-14T08:04:06;8.20;99.90
10046;DHT22;5063;50.878;4.742;2023-03-14T08:06:32;8.40;99.90
10046;DHT22;5063;50.878;4.742;2023-03-14T08:08:57;8.20;99.90
10046;DHT22;5063;50.878;4.742;2023-03-14T08:11:23;8.40;99.90
10046;DHT22;5063;50.878;4.742;2023-03-14T08:13:49;8.50;99.90
10046;DHT22;5063;50.878;4.742;2023-03-14T08:16:16;8.60;99.90
10046;DHT22;5063;50.878;4.742;2023-03-14T08:18:43;8.50;99.90
10046;DHT22;5063;50.878;4.742;2023-03-14T08:21:09;8.40;99.90
10046;DHT22;5063;50.878;4.742;2023-03-14T08:23:35;8.50;99.90
10046;DHT22;5063;50.878;4.742;2023-03-14T08:26:01;8.60;99.90
10046;DHT22;5063;50.878;4.742;2023-03-14T08:28:27;8.80;99.90
10046;DHT22;5063;50.878;4.742;2023-03-14T08:30:57;8.90;99.90
10046;DHT22;5063;50.878;4.742;2023-03-14T08:33:23;9.00;99.90
10046;DHT22;5063;50.878;4.742;2023-03-14T08:36:00;8.90;99.90
10046;DHT22;5063;50.878;4.742;2023-03-14T08:38:27;8.80;99.90
10046;DHT22;5063;50.878;4.742;2023-03-14T08:41:00;8.90;99.90
10046;DHT22;5063;50.878;4.742;2023-03-14T08:43:27;8.70;99.90
10046;DHT22;5063;50.878;4.742;2023-03-14T08:45:57;8.70;99.90
10046;DHT22;5063;50.878;4.742;2023-03-14T08:48:22;8.50;99.90
10046;DHT22;5063;50.878;4.742;2023-03-14T08:50:48;8.50;99.90
10046;DHT22;5063;50.878;4.742;2023-03-14T08:53:14;8.20;99.90
10046;DHT22;5063;50.878;4.742;2023-03-14T08:55:40;8.20;99.90
10046;DHT22;5063;50.878;4.742;2023-03-14T08:58:06;8.30;99.90
10046;DHT22;5063;50.878;4.742;2023-03-14T09:00:32;8.30;99.90
10046;DHT22;5063;50.878;4.742;2023-03-14T09:02:57;8.20;99.90
10046;DHT22;5063;50.878;4.742;2023-03-14T09:05:23;8.20;99.90
10046;DHT22;5063;50.878;4.742;2023-03-14T09:07:49;8.20;99.90
10046;DHT22;5063;50.878;4.742;2023-03-14T09:10:15;8.50;99.90
10046;DHT22;5063;50.878;4.742;2023-03-14T09:12:40;8.30;99.90
10046;DHT22;5063;50.878;4.742;2023-03-14T09:15:07;8.30;99.90
10046;DHT22;5063;50.878;4.742;2023-03-14T09:17:33;8.60;99.90
10046;DHT22;5063;50.878;4.742;2023-03-14T09:19:59;8.50;99.90
10046;DHT22;5063;50.878;4.742;2023-03-14T09:22:24;8.60;99.90
10046;DHT22;5063;50.878;4.742;2023-03-14T09:24:50;8.60;99.90
10046;DHT22;5063;50.878;4.742;2023-03-14T09:27:16;8.70;99.90
10046;DHT22;5063;50.878;4.742;2023-03-14T09:29:42;8.60;99.90
10046;DHT22;5063;50.878;4.742;2023-03-14T09:32:07;8.50;99.90
10046;DHT22;5063;50.878;4.742;2023-03-14T09:34:33;8.40;99.90
10046;DHT22;5063;50.878;4.742;2023-03-14T09:37:00;8.40;99.90
10046;DHT22;5063;50.878;4.742;2023-03-14T09:39:25;8.30;99.90
10046;DHT22;5063;50.878;4.742;2023-03-14T09:41:53;8.30;99.90
10046;DHT22;5063;50.878;4.742;2023-03-14T09:44:32;8.30;99.90
10046;DHT22;5063;50.878;4.742;2023-03-14T09:47:04;8.30;99.90
10046;DHT22;5063;50.878;4.742;2023-03-14T09:49:35;8.20;99.90
10046;DHT22;5063;50.878;4.742;2023-03-14T09:52:15;8.00;99.90
10046;DHT22;5063;50.878;4.742;2023-03-14T09:55:16;8.10;99.90
10046;DHT22;5063;50.878;4.742;2023-03-14T09:57:43;8.30;99.90
10046;DHT22;5063;50.878;4.742;2023-03-14T10:05:42;8.60;99.90
10046;DHT22;5063;50.878;4.742;2023-03-14T10:08:12;8.60;99.90
10046;DHT22;5063;50.878;4.742;2023-03-14T10:10:39;8.70;99.90
10046;DHT22;5063;50.878;4.742;2023-03-14T10:13:18;9.10;99.90
10046;DHT22;5063;50.878;4.742;2023-03-14T10:16:04;9.30;99.90
10046;DHT22;5063;50.878;4.742;2023-03-14T10:18:32;9.10;99.90
10046;DHT22;5063;50.878;4.742;2023-03-14T10:21:50;9.10;99.90
10046;DHT22;5063;50.878;4.742;2023-03-14T10:23:55;9.30;99.90
10046;DHT22;5063;50.878;4.742;2023-03-14T10:26:34;8.90;99.90
10046;DHT22;5063;50.878;4.742;2023-03-14T10:29:09;8.60;99.90
10046;DHT22;5063;50.878;4.742;2023-03-14T10:34:30;8.40;99.90
10046;DHT22;5063;50.878;4.742;2023-03-14T10:37:27;8.10;99.90
10046;DHT22;5063;50.878;4.742;2023-03-14T10:39:55;8.00;99.90
10046;DHT22;5063;50.878;4.742;2023-03-14T10:42:24;7.90;99.90
10046;DHT22;5063;50.878;4.742;2023-03-14T10:45:04;7.80;99.90
10046;DHT22;5063;50.878;4.742;2023-03-14T10:47:33;7.90;99.90
10046;DHT22;5063;50.878;4.742;2023-03-14T10:50:25;7.90;99.90
10046;DHT22;5063;50.878;4.742;2023-03-14T10:52:53;7.60;99.90
10046;DHT22;5063;50.878;4.742;2023-03-14T10:55:19;7.50;99.90
10046;DHT22;5063;50.878;4.742;2023-03-14T10:57:46;7.50;99.90
10046;DHT22;5063;50.878;4.742;2023-03-14T11:00:17;7.40;99.90
10046;DHT22;5063;50.878;4.742;2023-03-14T11:02:52;7.40;99.90
10046;DHT22;5063;50.878;4.742;2023-03-14T11:08:04;7.60;99.90
10046;DHT22;5063;50.878;4.742;2023-03-14T11:10:34;7.70;99.90
10046;DHT22;5063;50.878;4.742;2023-03-14T11:13:15;7.60;99.90
10046;DHT22;5063;50.878;4.742;2023-03-14T11:15:58;7.70;99.90
10046;DHT22;5063;50.878;4.742;2023-03-14T11:21:58;7.20;99.90
10046;DHT22;5063;50.878;4.742;2023-03-14T11:27:23;7.20;99.90
10046;DHT22;5063;50.878;4.742;2023-03-14T11:29:58;7.30;99.90
10046;DHT22;5063;50.878;4.742;2023-03-14T11:35:33;7.10;99.90
10046;DHT22;5063;50.878;4.742;2023-03-14T11:38:19;7.20;99.90
10046;DHT22;5063;50.878;4.742;2023-03-14T11:40:51;7.20;99.90
10046;DHT22;5063;50.878;4.742;2023-03-14T11:43:34;7.50;99.90
10046;DHT22;5063;50.878;4.742;2023-03-14T11:46:19;7.70;99.90
10046;DHT22;5063;50.878;4.742;2023-03-14T11:51:35;7.80;99.90
10046;DHT22;5063;50.878;4.742;2023-03-14T11:56:54;8.10;99.90
10046;DHT22;5063;50.878;4.742;2023-03-14T11:59:44;8.40;99.90
10046;DHT22;5063;50.878;4.742;2023-03-14T12:08:16;9.10;99.90
10046;DHT22;5063;50.878;4.742;2023-03-14T12:10:51;9.40;99.90
10046;DHT22;5063;50.878;4.742;2023-03-14T12:13:17;9.30;99.90
10046;DHT22;5063;50.878;4.742;2023-03-14T12:16:19;9.30;99.90
10046;DHT22;5063;50.878;4.742;2023-03-14T12:18:47;9.50;99.90
10046;DHT22;5063;50.878;4.742;2023-03-14T12:21:13;9.60;99.90
10046;DHT22;5063;50.878;4.742;2023-03-14T12:23:59;9.30;99.90
10046;DHT22;5063;50.878;4.742;2023-03-14T12:26:28;9.20;99.90
10046;DHT22;5063;50.878;4.742;2023-03-14T12:29:15;9.20;99.90
10046;DHT22;5063;50.878;4.742;2023-03-14T12:31:42;9.20;99.90
10046;DHT22;5063;50.878;4.742;2023-03-14T12:42:16;8.70;99.90
10046;DHT22;5063;50.878;4.742;2023-03-14T12:44:48;8.20;99.90
10046;DHT22;5063;50.878;4.742;2023-03-14T12:49:47;7.70;99.90
10046;DHT22;5063;50.878;4.742;2023-03-14T12:52:15;7.50;99.90
10046;DHT22;5063;50.878;4.742;2023-03-14T12:59:51;7.20;99.90
10046;DHT22;5063;50.878;4.742;2023-03-14T13:02:22;7.00;99.90
10046;DHT22;5063;50.878;4.742;2023-03-14T13:10:29;7.60;99.90
10046;DHT22;5063;50.878;4.742;2023-03-14T13:15:40;8.20;99.90
10046;DHT22;5063;50.878;4.742;2023-03-14T13:20:41;8.40;99.90
10046;DHT22;5063;50.878;4.742;2023-03-14T13:23:24;8.70;99.90
10046;DHT22;5063;50.878;4.742;2023-03-14T13:25:50;8.90;99.90
10046;DHT22;5063;50.878;4.742;2023-03-14T13:28:17;8.90;99.90
10046;DHT22;5063;50.878;4.742;2023-03-14T13:30:45;8.80;99.90
10046;DHT22;5063;50.878;4.742;2023-03-14T13:33:21;8.80;99.90
10046;DHT22;5063;50.878;4.742;2023-03-14T13:35:58;8.50;99.90
10046;DHT22;5063;50.878;4.742;2023-03-14T13:38:29;8.20;99.90
10046;DHT22;5063;50.878;4.742;2023-03-14T13:40:57;8.00;99.90
10046;DHT22;5063;50.878;4.742;2023-03-14T13:43:35;7.80;99.90
10046;DHT22;5063;50.878;4.742;2023-03-14T13:46:20;7.60;99.90
10046;DHT22;5063;50.878;4.742;2023-03-14T13:48:58;6.80;99.90
10046;DHT22;5063;50.878;4.742;2023-03-14T13:51:24;6.20;99.90
10046;DHT22;5063;50.878;4.742;2023-03-14T13:53:55;6.20;99.90
10046;DHT22;5063;50.878;4.742;2023-03-14T13:56:23;5.90;99.90
10046;DHT22;5063;50.878;4.742;2023-03-14T13:58:49;5.90;99.90
10046;DHT22;5063;50.878;4.742;2023-03-14T14:03:54;6.30;99.90
10046;DHT22;5063;50.878;4.742;2023-03-14T14:06:33;6.40;99.90
10046;DHT22;5063;50.878;4.742;2023-03-14T14:09:11;6.60;99.90
10046;DHT22;5063;50.878;4.742;2023-03-14T14:11:57;6.80;99.90
10046;DHT22;5063;50.878;4.742;2023-03-14T14:14:31;7.20;99.90
10046;DHT22;5063;50.878;4.742;2023-03-14T14:16:59;7.50;99.90
10046;DHT22;5063;50.878;4.742;2023-03-14T14:19:28;7.70;99.90
10046;DHT22;5063;50.878;4.742;2023-03-14T14:21:55;7.90;99.90
10046;DHT22;5063;50.878;4.742;2023-03-14T14:24:23;8.00;99.90
10046;DHT22;5063;50.878;4.742;2023-03-14T14:26:58;8.00;99.90
10046;DHT22;5063;50.878;4.742;2023-03-14T14:29:33;8.00;99.90
10046;DHT22;5063;50.878;4.742;2023-03-14T14:32:19;8.30;99.90
10046;DHT22;5063;50.878;4.742;2023-03-14T14:37:21;8.50;99.90
10046;DHT22;5063;50.878;4.742;2023-03-14T14:39:48;8.60;99.90
10046;DHT22;5063;50.878;4.742;2023-03-14T14:42:17;8.60;99.90
10046;DHT22;5063;50.878;4.742;2023-03-14T14:44:44;8.80;99.90
10046;DHT22;5063;50.878;4.742;2023-03-14T14:47:15;8.80;99.90
10046;DHT22;5063;50.878;4.742;2023-03-14T14:49:43;9.00;99.90
10046;DHT22;5063;50.878;4.742;2023-03-14T14:55:11;9.20;99.90
10046;DHT22;5063;50.878;4.742;2023-03-14T14:57:32;9.30;99.90
10046;DHT22;5063;50.878;4.742;2023-03-14T15:00:07;9.20;99.90
10046;DHT22;5063;50.878;4.742;2023-03-14T15:02:39;8.40;99.90
10046;DHT22;5063;50.878;4.742;2023-03-14T15:05:17;8.10;99.90
10046;DHT22;5063;50.878;4.742;2023-03-14T15:07:43;7.80;99.90
10046;DHT22;5063;50.878;4.742;2023-03-14T15:10:11;7.50;99.90
10046;DHT22;5063;50.878;4.742;2023-03-14T15:12:38;7.10;99.90
10046;DHT22;5063;50.878;4.742;2023-03-14T15:15:04;6.80;99.90
10046;DHT22;5063;50.878;4.742;2023-03-14T15:17:30;6.50;99.90
10046;DHT22;5063;50.878;4.742;2023-03-14T15:19:57;6.40;99.90
10046;DHT22;5063;50.878;4.742;2023-03-14T15:22:24;6.40;99.90
10046;DHT22;5063;50.878;4.742;2023-03-14T15:24:50;6.20;99.90
10046;DHT22;5063;50.878;4.742;2023-03-14T15:27:17;6.20;99.90
10046;DHT22;5063;50.878;4.742;2023-03-14T15:29:43;6.40;99.90
10046;DHT22;5063;50.878;4.742;2023-03-14T15:32:12;6.70;99.90
10046;DHT22;5063;50.878;4.742;2023-03-14T15:34:38;6.60;99.90
10046;DHT22;5063;50.878;4.742;2023-03-14T15:37:04;6.80;99.90
10046;DHT22;5063;50.878;4.742;2023-03-14T15:39:35;6.90;99.90
10046;DHT22;5063;50.878;4.742;2023-03-14T15:42:01;7.20;99.90
10046;DHT22;5063;50.878;4.742;2023-03-14T15:44:27;7.30;99.90
10046;DHT22;5063;50.878;4.742;2023-03-14T15:46:53;7.70;99.90
10046;DHT22;5063;50.878;4.742;2023-03-14T15:49:18;7.50;99.90
10046;DHT22;5063;50.878;4.742;2023-03-14T15:51:44;7.60;99.90
10046;DHT22;5063;50.878;4.742;2023-03-14T15:54:10;7.70;99.90
10046;DHT22;5063;50.878;4.742;2023-03-14T15:56:36;7.60;99.90
10046;DHT22;5063;50.878;4.742;2023-03-14T15:59:02;7.60;99.90
10046;DHT22;5063;50.878;4.742;2023-03-14T16:01:28;7.60;99.90
10046;DHT22;5063;50.878;4.742;2023-03-14T16:03:54;7.50;99.90
10046;DHT22;5063;50.878;4.742;2023-03-14T16:06:21;7.40;99.90
10046;DHT22;5063;50.878;4.742;2023-03-14T16:08:47;7.40;99.90
10046;DHT22;5063;50.878;4.742;2023-03-14T16:11:14;7.30;99.90
10046;DHT22;5063;50.878;4.742;2023-03-14T16:13:40;7.30;99.90
10046;DHT22;5063;50.878;4.742;2023-03-14T16:16:07;7.30;99.90
10046;DHT22;5063;50.878;4.742;2023-03-14T16:18:35;7.10;99.90
10046;DHT22;5063;50.878;4.742;2023-03-14T16:21:04;7.10;99.90
10046;DHT22;5063;50.878;4.742;2023-03-14T16:23:34;7.30;99.90
10046;DHT22;5063;50.878;4.742;2023-03-14T16:26:06;7.10;99.90
10046;DHT22;5063;50.878;4.742;2023-03-14T16:28:33;6.90;99.90
10046;DHT22;5063;50.878;4.742;2023-03-14T16:31:03;6.90;99.90
10046;DHT22;5063;50.878;4.742;2023-03-14T16:33:30;6.80;99.90
10046;DHT22;5063;50.878;4.742;2023-03-14T16:35:57;6.80;99.90
10046;DHT22;5063;50.878;4.742;2023-03-14T16:38:26;6.80;99.90
10046;DHT22;5063;50.878;4.742;2023-03-14T16:40:56;6.80;99.90
10046;DHT22;5063;50.878;4.742;2023-03-14T16:43:22;6.90;99.90
10046;DHT22;5063;50.878;4.742;2023-03-14T16:45:49;6.70;99.90
10046;DHT22;5063;50.878;4.742;2023-03-14T16:48:15;6.60;99.90
10046;DHT22;5063;50.878;4.742;2023-03-14T16:50:41;6.70;99.90
10046;DHT22;5063;50.878;4.742;2023-03-14T16:53:07;6.60;99.90
10046;DHT22;5063;50.878;4.742;2023-03-14T16:55:33;6.60;99.90
10046;DHT22;5063;50.878;4.742;2023-03-14T16:57:59;6.60;99.90
10046;DHT22;5063;50.878;4.742;2023-03-14T17:00:24;6.70;99.90
10046;DHT22;5063;50.878;4.742;2023-03-14T17:02:51;6.70;99.90
10046;DHT22;5063;50.878;4.742;2023-03-14T17:05:16;6.60;99.90
10046;DHT22;5063;50.878;4.742;2023-03-14T17:07:42;6.60;99.90
10046;DHT22;5063;50.878;4.742;2023-03-14T17:10:08;6.70;99.90
10046;DHT22;5063;50.878;4.742;2023-03-14T17:12:35;6.60;99.90
10046;DHT22;5063;50.878;4.742;2023-03-14T17:15:01;6.60;99.90
10046;DHT22;5063;50.878;4.742;2023-03-14T17:17:27;6.50;99.90